sensor_id;sensor_type;location;lat;lon;timestamp;pressure;altitude;pressure_sealevel;temperature
40624;BMP280;26325;48.594;11.650;2023-08-24T00:00:19;96868.94;;;18.70
40624;BMP280;26325;48.594;11.650;2023-08-24T00:02:47;96862.50;;;18.63
40624;BMP280;26325;48.594;11.650;2023-08-24T00:05:13;96869.22;;;18.69
40624;BMP280;26325;48.594;11.650;2023-08-24T00:07:43;96868.91;;;18.75
40624;BMP280;26325;48.594;11.650;2023-08-24T00:10:08;96871.19;;;18.82
40624;BMP280;26325;48.594;11.650;2023-08-24T00:12:36;96872.59;;;18.92
40624;BMP280;26325;48.594;11.650;2023-08-24T00:15:02;96868.88;;;19.11
40624;BMP280;26325;48.594;11.650;2023-08-24T00:17:30;96864.50;;;19.07
40624;BMP280;26325;48.594;11.650;2023-08-24T00:19:58;96862.13;;;18.92
40624;BMP280;26325;48.594;11.650;2023-08-24T00:22:23;96867.69;;;18.86
40624;BMP280;26325;48.594;11.650;2023-08-24T00:24:49;96867.09;;;18.71
40624;BMP280;26325;48.594;11.650;2023-08-24T00:27:14;96857.69;;;18.70
40624;BMP280;26325;48.594;11.650;2023-08-24T00:29:42;96858.75;;;18.69
40624;BMP280;26325;48.594;11.650;2023-08-24T00:32:12;96861.66;;;18.68
40624;BMP280;26325;48.594;11.650;2023-08-24T00:34:37;96859.03;;;18.68
40624;BMP280;26325;48.594;11.650;2023-08-24T00:37:05;96856.41;;;18.72
40624;BMP280;26325;48.594;11.650;2023-08-24T00:39:30;96863.22;;;18.68
40624;BMP280;26325;48.594;11.650;2023-08-24T00:41:56;96857.97;;;18.68
40624;BMP280;26325;48.594;11.650;2023-08-24T00:44:22;96861.97;;;18.66
40624;BMP280;26325;48.594;11.650;2023-08-24T00:46:50;96860.97;;;18.62
40624;BMP280;26325;48.594;11.650;2023-08-24T00:49:20;96855.16;;;18.65
40624;BMP280;26325;48.594;11.650;2023-08-24T00:51:48;96862.16;;;18.69
40624;BMP280;26325;48.594;11.650;2023-08-24T00:54:19;96858.47;;;18.70
40624;BMP280;26325;48.594;11.650;2023-08-24T00:56:47;96857.44;;;18.71
40624;BMP280;26325;48.594;11.650;2023-08-24T00:59:12;96849.84;;;18.52
40624;BMP280;26325;48.594;11.650;2023-08-24T01:01:39;96848.91;;;18.43
40624;BMP280;26325;48.594;11.650;2023-08-24T01:04:06;96851.53;;;18.43
40624;BMP280;26325;48.594;11.650;2023-08-24T01:06:35;96854.16;;;18.43
40624;BMP280;26325;48.594;11.650;2023-08-24T01:09:03;96855.66;;;18.49
40624;BMP280;26325;48.594;11.650;2023-08-24T01:16:40;96853.53;;;18.69
40624;BMP280;26325;48.594;11.650;2023-08-24T01:19:13;96858.44;;;18.57
40624;BMP280;26325;48.594;11.650;2023-08-24T01:21:42;96849.44;;;18.45
40624;BMP280;26325;48.594;11.650;2023-08-24T01:24:18;96859.47;;;18.38
40624;BMP280;26325;48.594;11.650;2023-08-24T01:26:49;96851.47;;;18.30
40624;BMP280;26325;48.594;11.650;2023-08-24T01:29:14;96851.78;;;18.24
40624;BMP280;26325;48.594;11.650;2023-08-24T01:31:43;96843.19;;;18.23
40624;BMP280;26325;48.594;11.650;2023-08-24T01:34:13;96849.47;;;18.22
40624;BMP280;26325;48.594;11.650;2023-08-24T01:36:40;96852.56;;;18.06
40624;BMP280;26325;48.594;11.650;2023-08-24T01:39:30;96854.03;;;18.12
40624;BMP280;26325;48.594;11.650;2023-08-24T01:41:56;96841.47;;;18.14
40624;BMP280;26325;48.594;11.650;2023-08-24T01:44:23;96836.72;;;18.16
40624;BMP280;26325;48.594;11.650;2023-08-24T01:46:50;96839.56;;;18.19
40624;BMP280;26325;48.594;11.650;2023-08-24T01:49:19;96838.38;;;18.12
40624;BMP280;26325;48.594;11.650;2023-08-24T01:51:47;96845.69;;;18.10
40624;BMP280;26325;48.594;11.650;2023-08-24T01:54:15;96842.66;;;18.03
40624;BMP280;26325;48.594;11.650;2023-08-24T01:56:40;96849.19;;;18.24
40624;BMP280;26325;48.594;11.650;2023-08-24T01:59:06;96842.13;;;18.24
40624;BMP280;26325;48.594;11.650;2023-08-24T02:01:31;96837.66;;;18.25
40624;BMP280;26325;48.594;11.650;2023-08-24T02:03:59;96832.63;;;18.10
40624;BMP280;26325;48.594;11.650;2023-08-24T02:06:25;96833.91;;;18.12
40624;BMP280;26325;48.594;11.650;2023-08-24T02:08:51;96837.66;;;18.25
40624;BMP280;26325;48.594;11.650;2023-08-24T02:11:16;96823.00;;;18.29
40624;BMP280;26325;48.594;11.650;2023-08-24T02:13:45;96837.81;;;18.33
40624;BMP280;26325;48.594;11.650;2023-08-24T02:16:12;96829.91;;;18.20
40624;BMP280;26325;48.594;11.650;2023-08-24T02:18:40;96825.28;;;18.12
40624;BMP280;26325;48.594;11.650;2023-08-24T02:21:08;96822.31;;;18.00
40624;BMP280;26325;48.594;11.650;2023-08-24T02:23:34;96821.44;;;17.87
40624;BMP280;26325;48.594;11.650;2023-08-24T02:25:59;96821.44;;;17.82
40624;BMP280;26325;48.594;11.650;2023-08-24T02:28:27;96817.56;;;17.79
40624;BMP280;26325;48.594;11.650;2023-08-24T02:30:59;96815.75;;;17.80
40624;BMP280;26325;48.594;11.650;2023-08-24T02:33:25;96826.47;;;17.78
40624;BMP280;26325;48.594;11.650;2023-08-24T02:35:50;96815.78;;;17.75
40624;BMP280;26325;48.594;11.650;2023-08-24T02:38:18;96816.28;;;17.77
40624;BMP280;26325;48.594;11.650;2023-08-24T02:40:46;96819.44;;;17.74
40624;BMP280;26325;48.594;11.650;2023-08-24T02:43:12;96811.59;;;17.74
40624;BMP280;26325;48.594;11.650;2023-08-24T02:45:38;96809.34;;;17.68
40624;BMP280;26325;48.594;11.650;2023-08-24T02:48:04;96813.00;;;17.67
40624;BMP280;26325;48.594;11.650;2023-08-24T02:50:30;96819.56;;;17.64
40624;BMP280;26325;48.594;11.650;2023-08-24T02:52:55;96813.28;;;17.65
40624;BMP280;26325;48.594;11.650;2023-08-24T02:55:25;96805.00;;;17.58
40624;BMP280;26325;48.594;11.650;2023-08-24T02:57:50;96803.44;;;17.57
40624;BMP280;26325;48.594;11.650;2023-08-24T03:00:18;96799.84;;;17.54
40624;BMP280;26325;48.594;11.650;2023-08-24T03:02:47;96803.50;;;17.53
40624;BMP280;26325;48.594;11.650;2023-08-24T03:05:12;96810.28;;;17.54
40624;BMP280;26325;48.594;11.650;2023-08-24T03:07:37;96801.69;;;17.53
40624;BMP280;26325;48.594;11.650;2023-08-24T03:10:03;96809.09;;;17.64
40624;BMP280;26325;48.594;11.650;2023-08-24T03:12:29;96798.97;;;17.81
40624;BMP280;26325;48.594;11.650;2023-08-24T03:14:57;96801.59;;;17.86
40624;BMP280;26325;48.594;11.650;2023-08-24T03:17:23;96802.50;;;17.72
40624;BMP280;26325;48.594;11.650;2023-08-24T03:19:48;96806.72;;;17.68
40624;BMP280;26325;48.594;11.650;2023-08-24T03:22:14;96805.94;;;17.67
40624;BMP280;26325;48.594;11.650;2023-08-24T03:24:39;96808.13;;;17.60
40624;BMP280;26325;48.594;11.650;2023-08-24T03:27:05;96797.22;;;17.54
40624;BMP280;26325;48.594;11.650;2023-08-24T03:29:35;96807.34;;;17.60
40624;BMP280;26325;48.594;11.650;2023-08-24T03:32:01;96812.03;;;17.63
40624;BMP280;26325;48.594;11.650;2023-08-24T03:34:29;96811.25;;;17.62
40624;BMP280;26325;48.594;11.650;2023-08-24T03:36:57;96812.91;;;17.54
40624;BMP280;26325;48.594;11.650;2023-08-24T03:39:24;96810.28;;;17.54
40624;BMP280;26325;48.594;11.650;2023-08-24T03:41:50;96812.91;;;17.54
40624;BMP280;26325;48.594;11.650;2023-08-24T03:44:17;96806.63;;;17.54
40624;BMP280;26325;48.594;11.650;2023-08-24T03:46:43;96811.63;;;17.51
40624;BMP280;26325;48.594;11.650;2023-08-24T03:49:18;96810.91;;;17.46
40624;BMP280;26325;48.594;11.650;2023-08-24T03:51:46;96804.66;;;17.42
40624;BMP280;26325;48.594;11.650;2023-08-24T03:54:11;96801.09;;;17.33
40624;BMP280;26325;48.594;11.650;2023-08-24T03:56:39;96800.81;;;17.35
40624;BMP280;26325;48.594;11.650;2023-08-24T03:59:08;96799.81;;;17.31
40624;BMP280;26325;48.594;11.650;2023-08-24T04:01:36;96804.75;;;17.32
40624;BMP280;26325;48.594;11.650;2023-08-24T04:04:04;96808.81;;;17.43
40624;BMP280;26325;48.594;11.650;2023-08-24T04:06:32;96808.22;;;17.51
40624;BMP280;26325;48.594;11.650;2023-08-24T04:08:59;96809.78;;;17.52
40624;BMP280;26325;48.594;11.650;2023-08-24T04:11:25;96808.66;;;17.57
40624;BMP280;26325;48.594;11.650;2023-08-24T04:13:52;96815.78;;;17.52
40624;BMP280;26325;48.594;11.650;2023-08-24T04:16:24;96816.56;;;17.53
40624;BMP280;26325;48.594;11.650;2023-08-24T04:18:51;96815.53;;;17.49
40624;BMP280;26325;48.594;11.650;2023-08-24T04:21:16;96818.56;;;17.37
40624;BMP280;26325;48.594;11.650;2023-08-24T04:23:44;96822.69;;;17.38
40624;BMP280;26325;48.594;11.650;2023-08-24T04:26:13;96816.13;;;17.46
40624;BMP280;26325;48.594;11.650;2023-08-24T04:28:39;96816.66;;;17.43
40624;BMP280;26325;48.594;11.650;2023-08-24T04:31:04;96818.22;;;17.44
40624;BMP280;26325;48.594;11.650;2023-08-24T04:33:32;96829.72;;;17.43
40624;BMP280;26325;48.594;11.650;2023-08-24T04:36:02;96831.28;;;17.44
40624;BMP280;26325;48.594;11.650;2023-08-24T04:38:33;96813.78;;;17.44
40624;BMP280;26325;48.594;11.650;2023-08-24T04:40:59;96817.94;;;17.45
40624;BMP280;26325;48.594;11.650;2023-08-24T04:43:33;96815.00;;;17.52
40624;BMP280;26325;48.594;11.650;2023-08-24T04:45:58;96808.13;;;17.60
40624;BMP280;26325;48.594;11.650;2023-08-24T04:48:35;96811.84;;;17.77
40624;BMP280;26325;48.594;11.650;2023-08-24T04:51:01;96805.41;;;17.93
40624;BMP280;26325;48.594;11.650;2023-08-24T04:53:28;96806.13;;;17.98
40624;BMP280;26325;48.594;11.650;2023-08-24T04:55:56;96805.44;;;18.11
40624;BMP280;26325;48.594;11.650;2023-08-24T04:58:23;96802.31;;;18.09
40624;BMP280;26325;48.594;11.650;2023-08-24T05:00:52;96802.31;;;18.09
40624;BMP280;26325;48.594;11.650;2023-08-24T05:03:18;96810.41;;;17.90
40624;BMP280;26325;48.594;11.650;2023-08-24T05:05:44;96800.69;;;17.95
40624;BMP280;26325;48.594;11.650;2023-08-24T05:08:12;96799.56;;;18.01
40624;BMP280;26325;48.594;11.650;2023-08-24T05:10:41;96793.00;;;18.03
40624;BMP280;26325;48.594;11.650;2023-08-24T05:13:09;96793.56;;;18.00
40624;BMP280;26325;48.594;11.650;2023-08-24T05:15:38;96787.69;;;18.08
40624;BMP280;26325;48.594;11.650;2023-08-24T05:18:06;96781.78;;;18.21
40624;BMP280;26325;48.594;11.650;2023-08-24T05:20:32;96788.00;;;18.25
40624;BMP280;26325;48.594;11.650;2023-08-24T05:23:00;96797.91;;;18.28
40624;BMP280;26325;48.594;11.650;2023-08-24T05:25:25;96795.38;;;18.41
40624;BMP280;26325;48.594;11.650;2023-08-24T05:27:53;96797.13;;;18.45
40624;BMP280;26325;48.594;11.650;2023-08-24T05:30:18;96802.00;;;18.51
40624;BMP280;26325;48.594;11.650;2023-08-24T05:32:44;96797.78;;;18.55
40624;BMP280;26325;48.594;11.650;2023-08-24T05:35:09;96799.19;;;18.66
40624;BMP280;26325;48.594;11.650;2023-08-24T05:37:35;96793.88;;;18.89
40624;BMP280;26325;48.594;11.650;2023-08-24T05:40:01;96793.63;;;19.04
40624;BMP280;26325;48.594;11.650;2023-08-24T05:42:27;96787.94;;;19.15
40624;BMP280;26325;48.594;11.650;2023-08-24T05:44:52;96791.66;;;19.40
40624;BMP280;26325;48.594;11.650;2023-08-24T05:47:18;96802.41;;;19.70
40624;BMP280;26325;48.594;11.650;2023-08-24T05:49:43;96808.59;;;20.00
40624;BMP280;26325;48.594;11.650;2023-08-24T05:52:11;96801.66;;;20.30
40624;BMP280;26325;48.594;11.650;2023-08-24T05:54:37;96805.00;;;20.70
40624;BMP280;26325;48.594;11.650;2023-08-24T05:57:03;96796.47;;;21.08
40624;BMP280;26325;48.594;11.650;2023-08-24T05:59:31;96806.44;;;21.40
40624;BMP280;26325;48.594;11.650;2023-08-24T06:01:59;96799.94;;;21.68
40624;BMP280;26325;48.594;11.650;2023-08-24T06:04:25;96806.53;;;21.95
40624;BMP280;26325;48.594;11.650;2023-08-24T06:06:50;96806.03;;;22.31
40624;BMP280;26325;48.594;11.650;2023-08-24T06:09:16;96795.72;;;22.59
40624;BMP280;26325;48.594;11.650;2023-08-24T06:11:41;96796.50;;;22.93
40624;BMP280;26325;48.594;11.650;2023-08-24T06:14:10;96801.25;;;23.32
40624;BMP280;26325;48.594;11.650;2023-08-24T06:16:40;96802.91;;;24.26
40624;BMP280;26325;48.594;11.650;2023-08-24T06:19:09;96806.06;;;25.28
40624;BMP280;26325;48.594;11.650;2023-08-24T06:21:37;96792.75;;;26.38
40624;BMP280;26325;48.594;11.650;2023-08-24T06:24:03;96787.94;;;27.90
40624;BMP280;26325;48.594;11.650;2023-08-24T06:26:29;96792.94;;;28.55
40624;BMP280;26325;48.594;11.650;2023-08-24T06:28:54;96796.19;;;28.64
40624;BMP280;26325;48.594;11.650;2023-08-24T06:31:21;96790.69;;;28.57
40624;BMP280;26325;48.594;11.650;2023-08-24T06:33:49;96795.59;;;28.55
40624;BMP280;26325;48.594;11.650;2023-08-24T06:36:17;96788.22;;;28.30
40624;BMP280;26325;48.594;11.650;2023-08-24T06:38:42;96782.03;;;28.11
40624;BMP280;26325;48.594;11.650;2023-08-24T06:41:10;96776.56;;;28.04
40624;BMP280;26325;48.594;11.650;2023-08-24T06:43:37;96776.13;;;28.17
40624;BMP280;26325;48.594;11.650;2023-08-24T06:46:05;96785.78;;;28.40
40624;BMP280;26325;48.594;11.650;2023-08-24T06:48:34;96786.09;;;28.54
40624;BMP280;26325;48.594;11.650;2023-08-24T06:51:00;96781.34;;;28.63
40624;BMP280;26325;48.594;11.650;2023-08-24T06:53:25;96787.06;;;28.80
40624;BMP280;26325;48.594;11.650;2023-08-24T06:55:57;96791.19;;;28.96
40624;BMP280;26325;48.594;11.650;2023-08-24T06:58:31;96781.25;;;29.11
40624;BMP280;26325;48.594;11.650;2023-08-24T07:00:56;96782.94;;;29.19
40624;BMP280;26325;48.594;11.650;2023-08-24T07:03:28;96786.56;;;29.11
40624;BMP280;26325;48.594;11.650;2023-08-24T07:05:54;96782.44;;;29.32
40624;BMP280;26325;48.594;11.650;2023-08-24T07:08:20;96773.25;;;29.30
40624;BMP280;26325;48.594;11.650;2023-08-24T07:10:49;96773.50;;;29.03
40624;BMP280;26325;48.594;11.650;2023-08-24T07:13:17;96769.38;;;29.06
40624;BMP280;26325;48.594;11.650;2023-08-24T07:15:43;96775.47;;;29.06
40624;BMP280;26325;48.594;11.650;2023-08-24T07:18:08;96760.13;;;29.18
40624;BMP280;26325;48.594;11.650;2023-08-24T07:20:35;96765.63;;;29.28
40624;BMP280;26325;48.594;11.650;2023-08-24T07:23:01;96766.25;;;29.59
40624;BMP280;26325;48.594;11.650;2023-08-24T07:25:26;96765.81;;;29.57
40624;BMP280;26325;48.594;11.650;2023-08-24T07:27:55;96754.88;;;29.40
40624;BMP280;26325;48.594;11.650;2023-08-24T07:30:26;96748.66;;;29.55
40624;BMP280;26325;48.594;11.650;2023-08-24T07:32:54;96742.50;;;29.51
40624;BMP280;26325;48.594;11.650;2023-08-24T07:35:20;96746.91;;;28.32
40624;BMP280;26325;48.594;11.650;2023-08-24T07:37:49;96742.06;;;28.71
40624;BMP280;26325;48.594;11.650;2023-08-24T07:40:14;96745.44;;;28.87
40624;BMP280;26325;48.594;11.650;2023-08-24T07:42:45;96738.09;;;28.99
40624;BMP280;26325;48.594;11.650;2023-08-24T07:45:12;96737.63;;;28.94
40624;BMP280;26325;48.594;11.650;2023-08-24T07:47:39;96731.28;;;29.20
40624;BMP280;26325;48.594;11.650;2023-08-24T07:50:05;96740.38;;;29.19
40624;BMP280;26325;48.594;11.650;2023-08-24T07:52:42;96736.25;;;29.40
40624;BMP280;26325;48.594;11.650;2023-08-24T07:55:22;96722.94;;;29.62
40624;BMP280;26325;48.594;11.650;2023-08-24T07:57:54;96726.88;;;29.68
40624;BMP280;26325;48.594;11.650;2023-08-24T08:00:36;96723.69;;;30.06
40624;BMP280;26325;48.594;11.650;2023-08-24T08:06:23;96735.28;;;29.51
40624;BMP280;26325;48.594;11.650;2023-08-24T08:11:50;96720.91;;;29.78
40624;BMP280;26325;48.594;11.650;2023-08-24T08:14:17;96717.63;;;29.62
40624;BMP280;26325;48.594;11.650;2023-08-24T08:16:43;96722.31;;;29.28
40624;BMP280;26325;48.594;11.650;2023-08-24T08:19:08;96723.78;;;29.66
40624;BMP280;26325;48.594;11.650;2023-08-24T08:21:34;96725.91;;;29.57
40624;BMP280;26325;48.594;11.650;2023-08-24T08:24:04;96723.97;;;29.76
40624;BMP280;26325;48.594;11.650;2023-08-24T08:26:31;96718.22;;;29.96
40624;BMP280;26325;48.594;11.650;2023-08-24T08:28:59;96724.47;;;30.07
40624;BMP280;26325;48.594;11.650;2023-08-24T08:31:27;96733.31;;;30.14
40624;BMP280;26325;48.594;11.650;2023-08-24T08:33:54;96731.25;;;30.04
40624;BMP280;26325;48.594;11.650;2023-08-24T08:36:25;96725.06;;;30.48
40624;BMP280;26325;48.594;11.650;2023-08-24T08:38:50;96725.22;;;30.58
40624;BMP280;26325;48.594;11.650;2023-08-24T08:41:15;96732.16;;;30.62
40624;BMP280;26325;48.594;11.650;2023-08-24T08:43:45;96728.09;;;29.96
40624;BMP280;26325;48.594;11.650;2023-08-24T08:46:13;96731.72;;;29.41
40624;BMP280;26325;48.594;11.650;2023-08-24T08:48:52;96733.09;;;29.35
40624;BMP280;26325;48.594;11.650;2023-08-24T08:51:17;96736.06;;;28.93
40624;BMP280;26325;48.594;11.650;2023-08-24T08:53:43;96728.97;;;29.19
40624;BMP280;26325;48.594;11.650;2023-08-24T08:56:09;96732.69;;;28.77
40624;BMP280;26325;48.594;11.650;2023-08-24T08:58:38;96733.00;;;28.72
40624;BMP280;26325;48.594;11.650;2023-08-24T09:01:33;96727.28;;;28.74
40624;BMP280;26325;48.594;11.650;2023-08-24T09:04:01;96717.47;;;28.93
40624;BMP280;26325;48.594;11.650;2023-08-24T09:06:27;96731.28;;;29.20
40624;BMP280;26325;48.594;11.650;2023-08-24T09:08:55;96721.75;;;28.97
40624;BMP280;26325;48.594;11.650;2023-08-24T09:11:23;96722.19;;;29.62
40624;BMP280;26325;48.594;11.650;2023-08-24T09:13:49;96715.75;;;29.41
40624;BMP280;26325;48.594;11.650;2023-08-24T09:16:14;96714.22;;;29.40
40624;BMP280;26325;48.594;11.650;2023-08-24T09:18:46;96700.34;;;29.31
40624;BMP280;26325;48.594;11.650;2023-08-24T09:21:15;96684.53;;;29.38
40624;BMP280;26325;48.594;11.650;2023-08-24T09:23:52;96693.13;;;29.97
40624;BMP280;26325;48.594;11.650;2023-08-24T09:26:32;96694.72;;;30.56
40624;BMP280;26325;48.594;11.650;2023-08-24T09:28:59;96694.75;;;31.20
40624;BMP280;26325;48.594;11.650;2023-08-24T09:31:37;96694.81;;;32.08
40624;BMP280;26325;48.594;11.650;2023-08-24T09:34:04;96692.56;;;32.20
40624;BMP280;26325;48.594;11.650;2023-08-24T09:36:33;96700.50;;;32.73
40624;BMP280;26325;48.594;11.650;2023-08-24T09:39:02;96689.25;;;33.34
40624;BMP280;26325;48.594;11.650;2023-08-24T09:41:41;96667.88;;;33.65
40624;BMP280;26325;48.594;11.650;2023-08-24T09:44:08;96666.38;;;33.64
40624;BMP280;26325;48.594;11.650;2023-08-24T09:46:38;96655.63;;;33.84
40624;BMP280;26325;48.594;11.650;2023-08-24T09:49:07;96654.41;;;34.47
40624;BMP280;26325;48.594;11.650;2023-08-24T09:51:34;96641.09;;;33.99
40624;BMP280;26325;48.594;11.650;2023-08-24T09:54:01;96637.81;;;34.75
40624;BMP280;26325;48.594;11.650;2023-08-24T09:56:38;96647.22;;;33.38
40624;BMP280;26325;48.594;11.650;2023-08-24T09:59:15;96642.16;;;34.46
40624;BMP280;26325;48.594;11.650;2023-08-24T10:01:48;96648.06;;;34.97
40624;BMP280;26325;48.594;11.650;2023-08-24T10:14:20;96634.97;;;35.62
40624;BMP280;26325;48.594;11.650;2023-08-24T10:16:46;96634.88;;;36.52
40624;BMP280;26325;48.594;11.650;2023-08-24T10:19:12;96634.41;;;36.24
40624;BMP280;26325;48.594;11.650;2023-08-24T10:21:40;96631.63;;;36.67
40624;BMP280;26325;48.594;11.650;2023-08-24T10:24:09;96632.22;;;36.81
40624;BMP280;26325;48.594;11.650;2023-08-24T10:26:36;96624.59;;;36.07
40624;BMP280;26325;48.594;11.650;2023-08-24T10:29:05;96627.69;;;36.75
40624;BMP280;26325;48.594;11.650;2023-08-24T10:31:31;96623.31;;;34.66
40624;BMP280;26325;48.594;11.650;2023-08-24T10:33:57;96617.34;;;34.08
40624;BMP280;26325;48.594;11.650;2023-08-24T10:43:07;96605.03;;;35.64
40624;BMP280;26325;48.594;11.650;2023-08-24T10:48:57;96599.06;;;36.25
40624;BMP280;26325;48.594;11.650;2023-08-24T10:51:24;96589.47;;;37.16
40624;BMP280;26325;48.594;11.650;2023-08-24T10:53:53;96590.03;;;36.09
40624;BMP280;26325;48.594;11.650;2023-08-24T10:56:19;96573.31;;;35.92
40624;BMP280;26325;48.594;11.650;2023-08-24T11:02:07;96558.56;;;37.23
40624;BMP280;26325;48.594;11.650;2023-08-24T11:08:03;96554.22;;;37.96
40624;BMP280;26325;48.594;11.650;2023-08-24T11:17:06;96533.28;;;38.04
40624;BMP280;26325;48.594;11.650;2023-08-24T11:19:49;96524.03;;;37.18
40624;BMP280;26325;48.594;11.650;2023-08-24T11:22:16;96520.59;;;36.37
40624;BMP280;26325;48.594;11.650;2023-08-24T11:24:41;96514.31;;;36.14
40624;BMP280;26325;48.594;11.650;2023-08-24T11:27:08;96513.47;;;36.53
40624;BMP280;26325;48.594;11.650;2023-08-24T11:29:34;96512.25;;;36.83
40624;BMP280;26325;48.594;11.650;2023-08-24T11:31:59;96504.66;;;36.49
40624;BMP280;26325;48.594;11.650;2023-08-24T11:34:25;96508.41;;;35.61
40624;BMP280;26325;48.594;11.650;2023-08-24T11:36:53;96493.84;;;36.27
40624;BMP280;26325;48.594;11.650;2023-08-24T11:39:22;96501.00;;;35.35
40624;BMP280;26325;48.594;11.650;2023-08-24T11:45:13;96494.53;;;35.65
40624;BMP280;26325;48.594;11.650;2023-08-24T11:47:41;96501.69;;;35.43
40624;BMP280;26325;48.594;11.650;2023-08-24T11:50:13;96488.69;;;34.91
40624;BMP280;26325;48.594;11.650;2023-08-24T11:52:42;96480.06;;;34.60
40624;BMP280;26325;48.594;11.650;2023-08-24T11:55:10;96479.91;;;34.87
40624;BMP280;26325;48.594;11.650;2023-08-24T11:57:50;96481.59;;;35.14
40624;BMP280;26325;48.594;11.650;2023-08-24T12:00:19;96482.84;;;35.03
40624;BMP280;26325;48.594;11.650;2023-08-24T12:02:47;96493.03;;;36.59
40624;BMP280;26325;48.594;11.650;2023-08-24T12:05:26;96489.44;;;36.69
40624;BMP280;26325;48.594;11.650;2023-08-24T12:07:52;96484.59;;;37.31
40624;BMP280;26325;48.594;11.650;2023-08-24T12:10:21;96490.44;;;37.26
40624;BMP280;26325;48.594;11.650;2023-08-24T12:12:47;96488.63;;;37.20
40624;BMP280;26325;48.594;11.650;2023-08-24T12:15:18;96490.19;;;36.11
40624;BMP280;26325;48.594;11.650;2023-08-24T12:17:47;96495.28;;;35.69
40624;BMP280;26325;48.594;11.650;2023-08-24T12:20:22;96482.63;;;37.13
40624;BMP280;26325;48.594;11.650;2023-08-24T12:22:55;96481.63;;;38.09
40624;BMP280;26325;48.594;11.650;2023-08-24T12:25:24;96477.44;;;37.44
40624;BMP280;26325;48.594;11.650;2023-08-24T12:28:07;96466.25;;;38.44
40624;BMP280;26325;48.594;11.650;2023-08-24T12:30:33;96469.00;;;38.21
40624;BMP280;26325;48.594;11.650;2023-08-24T12:33:08;96462.97;;;37.98
40624;BMP280;26325;48.594;11.650;2023-08-24T12:35:33;96461.09;;;37.95
40624;BMP280;26325;48.594;11.650;2023-08-24T12:37:59;96456.97;;;37.27
40624;BMP280;26325;48.594;11.650;2023-08-24T12:40:26;96466.31;;;35.87
40624;BMP280;26325;48.594;11.650;2023-08-24T12:42:52;96466.66;;;35.89
40624;BMP280;26325;48.594;11.650;2023-08-24T12:45:17;96456.91;;;35.33
40624;BMP280;26325;48.594;11.650;2023-08-24T12:47:47;96444.09;;;36.16
40624;BMP280;26325;48.594;11.650;2023-08-24T12:50:13;96451.38;;;36.44
40624;BMP280;26325;48.594;11.650;2023-08-24T12:52:40;96442.06;;;35.94
40624;BMP280;26325;48.594;11.650;2023-08-24T12:55:07;96432.47;;;35.93
40624;BMP280;26325;48.594;11.650;2023-08-24T12:57:37;96426.09;;;35.80
40624;BMP280;26325;48.594;11.650;2023-08-24T13:00:03;96420.66;;;36.42
40624;BMP280;26325;48.594;11.650;2023-08-24T13:02:29;96432.19;;;35.84
40624;BMP280;26325;48.594;11.650;2023-08-24T13:04:54;96424.66;;;36.31
40624;BMP280;26325;48.594;11.650;2023-08-24T13:07:26;96412.13;;;37.40
40624;BMP280;26325;48.594;11.650;2023-08-24T13:09:54;96415.41;;;36.83
40624;BMP280;26325;48.594;11.650;2023-08-24T13:12:19;96409.72;;;36.81
40624;BMP280;26325;48.594;11.650;2023-08-24T13:14:45;96398.16;;;37.07
40624;BMP280;26325;48.594;11.650;2023-08-24T13:17:12;96394.75;;;36.80
40624;BMP280;26325;48.594;11.650;2023-08-24T13:19:38;96395.28;;;38.12
40624;BMP280;26325;48.594;11.650;2023-08-24T13:22:03;96395.66;;;38.80
40624;BMP280;26325;48.594;11.650;2023-08-24T13:24:29;96393.06;;;37.92
40624;BMP280;26325;48.594;11.650;2023-08-24T13:26:55;96394.28;;;37.87
40624;BMP280;26325;48.594;11.650;2023-08-24T13:29:23;96377.16;;;38.13
40624;BMP280;26325;48.594;11.650;2023-08-24T13:31:51;96379.41;;;39.27
40624;BMP280;26325;48.594;11.650;2023-08-24T13:34:19;96376.41;;;39.52
40624;BMP280;26325;48.594;11.650;2023-08-24T13:36:47;96372.56;;;40.54
40624;BMP280;26325;48.594;11.650;2023-08-24T13:39:15;96368.34;;;40.17
40624;BMP280;26325;48.594;11.650;2023-08-24T13:41:40;96363.84;;;39.03
40624;BMP280;26325;48.594;11.650;2023-08-24T13:44:08;96362.19;;;38.62
40624;BMP280;26325;48.594;11.650;2023-08-24T13:46:33;96355.53;;;37.62
40624;BMP280;26325;48.594;11.650;2023-08-24T13:49:01;96347.09;;;37.60
40624;BMP280;26325;48.594;11.650;2023-08-24T13:51:29;96352.47;;;37.00
40624;BMP280;26325;48.594;11.650;2023-08-24T13:53:54;96345.25;;;36.97
40624;BMP280;26325;48.594;11.650;2023-08-24T13:56:22;96343.28;;;36.78
40624;BMP280;26325;48.594;11.650;2023-08-24T13:58:47;96344.22;;;38.05
40624;BMP280;26325;48.594;11.650;2023-08-24T14:01:13;96339.16;;;38.89
40624;BMP280;26325;48.594;11.650;2023-08-24T14:03:39;96327.00;;;40.04
40624;BMP280;26325;48.594;11.650;2023-08-24T14:06:09;96327.09;;;38.93
40624;BMP280;26325;48.594;11.650;2023-08-24T14:08:43;96317.16;;;38.59
40624;BMP280;26325;48.594;11.650;2023-08-24T14:14:18;96311.63;;;39.89
40624;BMP280;26325;48.594;11.650;2023-08-24T14:16:44;96304.88;;;40.33
40624;BMP280;26325;48.594;11.650;2023-08-24T14:19:09;96306.09;;;38.69
40624;BMP280;26325;48.594;11.650;2023-08-24T14:21:35;96301.97;;;38.02
40624;BMP280;26325;48.594;11.650;2023-08-24T14:24:00;96308.41;;;38.39
40624;BMP280;26325;48.594;11.650;2023-08-24T14:26:26;96305.53;;;38.31
40624;BMP280;26325;48.594;11.650;2023-08-24T14:28:55;96304.34;;;38.78
40624;BMP280;26325;48.594;11.650;2023-08-24T14:31:27;96299.31;;;39.36
40624;BMP280;26325;48.594;11.650;2023-08-24T14:33:52;96296.66;;;40.00
40624;BMP280;26325;48.594;11.650;2023-08-24T14:36:19;96300.41;;;38.52
40624;BMP280;26325;48.594;11.650;2023-08-24T14:38:46;96292.38;;;38.48
40624;BMP280;26325;48.594;11.650;2023-08-24T14:41:13;96283.78;;;38.37
40624;BMP280;26325;48.594;11.650;2023-08-24T14:43:39;96283.16;;;38.92
40624;BMP280;26325;48.594;11.650;2023-08-24T14:46:05;96285.28;;;38.85
40624;BMP280;26325;48.594;11.650;2023-08-24T14:48:33;96273.25;;;39.02
40624;BMP280;26325;48.594;11.650;2023-08-24T14:50:59;96283.28;;;38.73